createdAt,value
2019-05-26T00:00:06.185Z,14.31
2019-05-26T00:01:06.202Z,14.19
2019-05-26T00:02:06.197Z,14.21
2019-05-26T00:03:06.218Z,14.23
2019-05-26T00:04:06.216Z,14.12
2019-05-26T00:05:06.265Z,14.13
2019-05-26T00:06:06.235Z,14.12
2019-05-26T00:07:06.233Z,14.05
2019-05-26T00:08:06.260Z,14.12
2019-05-26T00:09:06.263Z,14.02
2019-05-26T00:10:06.413Z,14.02
2019-05-26T00:11:06.274Z,13.91
2019-05-26T00:12:06.280Z,13.96
2019-05-26T00:13:06.292Z,13.93
2019-05-26T00:14:06.301Z,13.87
2019-05-26T00:15:06.300Z,13.81
2019-05-26T00:16:06.322Z,13.79
2019-05-26T00:17:06.323Z,13.86
2019-05-26T00:18:06.328Z,13.80
2019-05-26T00:19:06.357Z,13.86
2019-05-26T00:20:06.334Z,13.80
2019-05-26T00:21:06.370Z,13.88
2019-05-26T00:22:06.360Z,13.88
2019-05-26T00:23:06.366Z,13.88
2019-05-26T00:24:06.376Z,13.86
2019-05-26T00:25:06.376Z,13.79
2019-05-26T00:26:06.397Z,13.72
2019-05-26T00:27:06.395Z,13.76
2019-05-26T00:28:06.410Z,13.75
2019-05-26T00:29:06.413Z,13.72
2019-05-26T00:30:06.444Z,13.71
2019-05-26T00:31:06.435Z,13.73
2019-05-26T00:32:06.439Z,13.71
2019-05-26T00:33:06.459Z,13.81
2019-05-26T00:34:06.453Z,13.81
2019-05-26T00:35:06.454Z,13.75
2019-05-26T00:36:06.456Z,13.73
2019-05-26T00:37:06.475Z,13.75
2019-05-26T00:38:06.483Z,13.63
2019-05-26T00:39:06.483Z,13.69
2019-05-26T00:40:06.506Z,13.65
2019-05-26T00:41:06.503Z,13.51
2019-05-26T00:42:06.514Z,13.51
2019-05-26T00:43:06.611Z,13.61
2019-05-26T00:44:06.532Z,13.46
2019-05-26T00:45:06.540Z,13.43
2019-05-26T00:46:06.548Z,13.36
2019-05-26T00:47:06.550Z,13.35
2019-05-26T00:48:06.578Z,13.27
2019-05-26T00:49:06.568Z,13.24
2019-05-26T00:50:06.573Z,13.22
2019-05-26T00:51:06.584Z,13.32
2019-05-26T00:52:06.592Z,13.19
2019-05-26T00:53:06.595Z,13.21
2019-05-26T00:54:06.600Z,13.22
2019-05-26T00:55:06.613Z,13.24
2019-05-26T00:56:06.618Z,13.25
2019-05-26T00:57:06.637Z,13.25
2019-05-26T00:58:06.637Z,13.22
2019-05-26T00:59:06.648Z,13.22
2019-05-26T01:00:06.653Z,13.21
2019-05-26T01:01:06.666Z,13.25
2019-05-26T01:02:06.666Z,13.28
2019-05-26T01:03:06.667Z,13.25
2019-05-26T01:04:06.690Z,13.32
2019-05-26T01:05:06.691Z,13.38
2019-05-26T01:06:06.721Z,13.31
2019-05-26T01:07:06.714Z,13.36
2019-05-26T01:08:07.000Z,13.32
2019-05-26T01:09:06.750Z,13.38
2019-05-26T01:10:06.731Z,13.36
2019-05-26T01:11:06.735Z,13.43
2019-05-26T01:12:06.742Z,13.39
2019-05-26T01:13:06.752Z,13.29
2019-05-26T01:14:06.761Z,13.35
2019-05-26T01:15:06.782Z,13.35
2019-05-26T01:16:06.766Z,13.35
2019-05-26T01:17:06.783Z,13.31
2019-05-26T01:18:06.789Z,13.39
2019-05-26T01:19:06.795Z,13.36
2019-05-26T01:20:06.809Z,13.29
2019-05-26T01:21:06.824Z,13.32
2019-05-26T01:22:06.831Z,13.36
2019-05-26T01:23:06.830Z,13.32
2019-05-26T01:24:06.831Z,13.22
2019-05-26T01:25:06.921Z,13.17
2019-05-26T01:26:06.852Z,13.21
2019-05-26T01:27:06.859Z,13.29
2019-05-26T01:28:06.876Z,13.21
2019-05-26T01:29:06.874Z,13.19
2019-05-26T01:30:06.881Z,13.28
2019-05-26T01:31:07.024Z,13.22
2019-05-26T01:32:06.896Z,13.14
2019-05-26T01:33:06.901Z,13.09
2019-05-26T01:34:06.908Z,13.13
2019-05-26T01:35:06.984Z,13.07
2019-05-26T01:36:06.919Z,13.10
2019-05-26T01:37:06.940Z,13.04
2019-05-26T01:38:22.657Z,13.10
2019-05-26T01:39:06.948Z,12.96
2019-05-26T01:40:06.960Z,13.06
2019-05-26T01:41:06.950Z,13.10
2019-05-26T01:42:06.971Z,13.07
2019-05-26T01:43:06.979Z,13.04
2019-05-26T01:44:06.977Z,13.07
2019-05-26T01:45:06.992Z,13.14
2019-05-26T01:46:06.996Z,13.10
2019-05-26T01:47:07.006Z,13.21
2019-05-26T01:48:07.021Z,13.13
2019-05-26T01:49:07.012Z,13.12
2019-05-26T01:50:07.034Z,13.09
2019-05-26T01:51:07.034Z,13.14
2019-05-26T01:52:07.046Z,13.12
2019-05-26T01:53:07.056Z,13.09
2019-05-26T01:54:07.059Z,13.17
2019-05-26T01:55:07.062Z,13.13
2019-05-26T01:56:07.065Z,13.16
2019-05-26T01:57:07.086Z,13.10
2019-05-26T01:59:07.100Z,13.04
2019-05-26T02:00:07.109Z,12.95
2019-05-26T02:01:07.153Z,13.03
2019-05-26T02:02:07.119Z,13.01
2019-05-26T02:03:07.128Z,12.98
2019-05-26T02:04:07.264Z,13.01
2019-05-26T02:05:07.136Z,13.03
2019-05-26T02:06:07.157Z,13.06
2019-05-26T02:07:07.185Z,12.94
2019-05-26T02:08:07.221Z,12.92
2019-05-26T02:09:07.158Z,12.95
2019-05-26T02:10:07.179Z,12.94
2019-05-26T02:11:07.181Z,13.03
2019-05-26T02:12:07.273Z,12.98
2019-05-26T02:13:07.197Z,12.98
2019-05-26T02:14:07.203Z,12.92
2019-05-26T02:15:07.260Z,13.03
2019-05-26T02:16:07.218Z,12.98
2019-05-26T02:17:07.234Z,12.96
2019-05-26T02:18:07.230Z,12.91
2019-05-26T02:19:07.248Z,12.98
2019-05-26T02:20:07.250Z,12.98
2019-05-26T02:21:07.263Z,12.95
2019-05-26T02:22:07.367Z,12.88
2019-05-26T02:23:07.272Z,12.84
2019-05-26T02:24:07.280Z,12.80
2019-05-26T02:25:07.285Z,12.81
2019-05-26T02:26:07.291Z,12.77
2019-05-26T02:27:07.297Z,12.80
2019-05-26T02:28:07.307Z,12.79
2019-05-26T02:29:07.309Z,12.81
2019-05-26T02:30:07.320Z,12.74
2019-05-26T02:31:07.334Z,12.85
2019-05-26T02:32:07.327Z,12.79
2019-05-26T02:33:07.343Z,12.67
2019-05-26T02:34:07.346Z,12.67
2019-05-26T02:35:07.435Z,12.66
2019-05-26T02:36:07.359Z,12.71
2019-05-26T02:37:07.367Z,12.62
2019-05-26T02:38:07.396Z,12.70
2019-05-26T02:39:07.382Z,12.62
2019-05-26T02:40:07.391Z,12.59
2019-05-26T02:41:07.401Z,12.58
2019-05-26T02:42:07.408Z,12.51
2019-05-26T02:43:07.410Z,12.49
2019-05-26T02:44:07.426Z,12.56
2019-05-26T02:45:07.481Z,12.48
2019-05-26T02:46:07.457Z,12.49
2019-05-26T02:47:07.442Z,12.44
2019-05-26T02:48:07.451Z,12.43
2019-05-26T02:49:07.461Z,12.49
2019-05-26T02:50:07.469Z,12.46
2019-05-26T02:51:07.469Z,12.41
2019-05-26T02:52:07.482Z,12.41
2019-05-26T02:53:07.484Z,12.38
2019-05-26T02:54:07.501Z,12.37
2019-05-26T02:55:07.576Z,12.31
2019-05-26T02:56:07.508Z,12.31
2019-05-26T02:57:07.516Z,12.22
2019-05-26T02:58:07.535Z,12.21
2019-05-26T02:59:07.520Z,12.21
2019-05-26T03:00:07.547Z,12.21
2019-05-26T03:01:07.549Z,12.18
2019-05-26T03:02:07.546Z,12.19
2019-05-26T03:03:07.562Z,12.21
2019-05-26T03:04:07.574Z,12.13
2019-05-26T03:05:07.564Z,12.05
2019-05-26T03:06:07.578Z,12.12
2019-05-26T03:07:07.582Z,12.01
2019-05-26T03:08:07.589Z,11.88
2019-05-26T03:09:22.084Z,11.96
2019-05-26T03:10:07.614Z,11.88
2019-05-26T03:11:07.612Z,11.96
2019-05-26T03:12:07.616Z,11.84
2019-05-26T03:13:07.646Z,11.78
2019-05-26T03:14:07.625Z,11.93
2019-05-26T03:15:07.634Z,11.82
2019-05-26T03:16:07.647Z,11.78
2019-05-26T03:17:07.649Z,11.81
2019-05-26T03:18:07.652Z,11.84
2019-05-26T03:19:07.662Z,11.93
2019-05-26T03:20:07.674Z,11.77
2019-05-26T03:21:07.686Z,11.81
2019-05-26T03:22:07.697Z,11.77
2019-05-26T03:23:07.807Z,11.79
2019-05-26T03:24:07.695Z,11.90
2019-05-26T03:25:07.704Z,11.77
2019-05-26T03:26:07.705Z,11.90
2019-05-26T03:27:07.719Z,11.90
2019-05-26T03:28:07.722Z,11.79
2019-05-26T03:29:07.728Z,11.78
2019-05-26T03:30:07.726Z,11.78
2019-05-26T03:31:07.740Z,11.75
2019-05-26T03:32:07.818Z,11.75
2019-05-26T03:33:07.804Z,11.79
2019-05-26T03:34:07.903Z,11.81
2019-05-26T03:35:07.791Z,11.81
2019-05-26T03:36:10.417Z,11.81
2019-05-26T03:37:07.791Z,11.81
2019-05-26T03:38:07.786Z,11.85
2019-05-26T03:39:07.799Z,11.87
2019-05-26T03:40:07.801Z,11.93
2019-05-26T03:41:07.804Z,11.85
2019-05-26T03:42:07.815Z,11.97
2019-05-26T03:43:07.822Z,11.94
2019-05-26T03:44:07.831Z,11.98
2019-05-26T03:45:07.836Z,11.85
2019-05-26T03:46:07.938Z,11.94
2019-05-26T03:47:07.846Z,11.93
2019-05-26T03:48:07.864Z,11.94
2019-05-26T03:49:07.866Z,11.90
2019-05-26T03:50:08.012Z,11.87
2019-05-26T03:51:07.870Z,11.90
2019-05-26T03:52:07.875Z,11.87
2019-05-26T03:53:07.891Z,11.98
2019-05-26T03:54:07.903Z,11.93
2019-05-26T03:55:07.903Z,12.03
2019-05-26T03:56:07.912Z,12.01
2019-05-26T03:57:07.933Z,12.03
2019-05-26T03:58:07.919Z,12.01
2019-05-26T03:59:07.931Z,11.97
2019-05-26T04:00:07.938Z,11.94
2019-05-26T04:01:08.024Z,11.90
2019-05-26T04:02:07.950Z,11.94
2019-05-26T04:03:08.027Z,11.87
2019-05-26T04:04:07.955Z,11.96
2019-05-26T04:05:07.970Z,11.93
2019-05-26T04:06:07.972Z,11.93
2019-05-26T04:07:07.980Z,11.87
2019-05-26T04:08:07.989Z,11.84
2019-05-26T04:09:07.996Z,11.87
2019-05-26T04:10:08.065Z,11.85
2019-05-26T04:11:08.001Z,11.93
2019-05-26T04:12:08.013Z,11.81
2019-05-26T04:13:08.024Z,11.94
2019-05-26T04:14:08.098Z,11.96
2019-05-26T04:16:08.041Z,12.01
2019-05-26T04:17:08.046Z,12.05
2019-05-26T04:18:08.057Z,11.98
2019-05-26T04:19:08.068Z,12.01
2019-05-26T04:21:08.079Z,12.01
2019-05-26T04:22:08.082Z,12.11
2019-05-26T04:23:08.087Z,12.07
2019-05-26T04:24:08.134Z,12.13
2019-05-26T04:25:08.111Z,12.13
2019-05-26T04:26:08.115Z,12.13
2019-05-26T04:27:08.119Z,12.16
2019-05-26T04:28:08.123Z,12.15
2019-05-26T04:29:08.134Z,12.07
2019-05-26T04:31:08.175Z,12.12
2019-05-26T04:32:08.166Z,12.18
2019-05-26T04:33:08.170Z,12.25
2019-05-26T04:34:08.155Z,12.13
2019-05-26T04:35:08.175Z,12.23
2019-05-26T04:36:08.176Z,12.26
2019-05-26T04:37:08.182Z,12.15
2019-05-26T04:38:08.191Z,12.31
2019-05-26T04:39:08.195Z,12.30
2019-05-26T04:40:25.624Z,12.31
2019-05-26T04:41:08.212Z,12.37
2019-05-26T04:42:08.224Z,12.43
2019-05-26T04:43:08.229Z,12.36
2019-05-26T04:44:08.233Z,12.36
2019-05-26T04:45:08.237Z,12.44
2019-05-26T04:46:08.239Z,12.38
2019-05-26T04:47:08.245Z,12.34
2019-05-26T04:48:08.264Z,12.34
2019-05-26T04:49:08.440Z,12.34
2019-05-26T04:50:08.271Z,12.38
2019-05-26T04:51:08.280Z,12.40
2019-05-26T04:52:08.415Z,12.52
2019-05-26T04:53:08.410Z,12.51
2019-05-26T04:54:08.293Z,12.55
2019-05-26T04:55:08.300Z,12.51
2019-05-26T04:56:08.305Z,12.51
2019-05-26T04:57:08.335Z,12.58
2019-05-26T04:58:08.329Z,12.61
2019-05-26T04:59:08.339Z,12.49
2019-05-26T05:00:08.346Z,12.59
2019-05-26T05:01:08.352Z,12.66
2019-05-26T05:02:08.466Z,12.67
2019-05-26T05:03:08.366Z,12.70
2019-05-26T05:04:08.376Z,12.63
2019-05-26T05:05:08.389Z,12.67
2019-05-26T05:06:08.392Z,12.71
2019-05-26T05:07:08.401Z,12.77
2019-05-26T05:08:08.396Z,12.87
2019-05-26T05:09:08.412Z,12.94
2019-05-26T05:10:08.416Z,12.99
2019-05-26T05:11:08.427Z,13.10
2019-05-26T05:12:08.424Z,13.14
2019-05-26T05:13:08.438Z,13.13
2019-05-26T05:14:08.448Z,13.09
2019-05-26T05:15:08.542Z,13.17
2019-05-26T05:16:08.458Z,13.25
2019-05-26T05:17:08.477Z,13.12
2019-05-26T05:18:08.521Z,13.24
2019-05-26T05:19:08.502Z,13.35
2019-05-26T05:20:08.487Z,13.28
2019-05-26T05:21:08.508Z,13.46
2019-05-26T05:22:08.517Z,13.47
2019-05-26T05:23:08.518Z,13.55
2019-05-26T05:24:08.526Z,13.51
2019-05-26T05:25:14.212Z,13.65
2019-05-26T05:26:08.543Z,13.66
2019-05-26T05:27:08.550Z,13.61
2019-05-26T05:28:08.557Z,13.65
2019-05-26T05:29:08.567Z,13.73
2019-05-26T05:30:08.574Z,13.76
2019-05-26T05:31:08.588Z,13.71
2019-05-26T05:32:08.588Z,13.75
2019-05-26T05:33:08.614Z,13.71
2019-05-26T05:34:08.610Z,13.72
2019-05-26T05:35:08.620Z,13.81
2019-05-26T05:36:08.629Z,13.79
2019-05-26T05:37:08.631Z,13.80
2019-05-26T05:38:08.638Z,13.75
2019-05-26T05:39:08.658Z,13.72
2019-05-26T05:40:08.665Z,13.81
2019-05-26T05:41:08.669Z,13.84
2019-05-26T05:42:08.685Z,13.80
2019-05-26T05:43:08.679Z,13.94
2019-05-26T05:44:08.706Z,13.94
2019-05-26T05:45:08.707Z,14.06
2019-05-26T05:46:08.714Z,14.16
2019-05-26T05:47:08.722Z,14.16
2019-05-26T05:48:08.804Z,14.21
2019-05-26T05:49:08.738Z,14.05
2019-05-26T05:50:08.741Z,14.09
2019-05-26T05:51:08.753Z,14.21
2019-05-26T05:52:08.765Z,14.27
2019-05-26T05:53:08.772Z,14.27
2019-05-26T05:54:08.780Z,14.27
2019-05-26T05:55:08.787Z,14.41
2019-05-26T05:57:08.811Z,14.39
2019-05-26T05:58:08.817Z,14.53
2019-05-26T05:59:08.825Z,14.53
2019-05-26T06:00:08.832Z,14.46
2019-05-26T06:01:08.837Z,14.56
2019-05-26T06:02:08.848Z,14.52
2019-05-26T06:03:08.862Z,14.60
2019-05-26T06:04:08.869Z,14.64
2019-05-26T06:05:08.877Z,14.60
2019-05-26T06:06:08.882Z,14.64
2019-05-26T06:07:08.901Z,14.54
2019-05-26T06:08:08.900Z,14.64
2019-05-26T06:09:08.911Z,14.75
2019-05-26T06:10:08.921Z,14.64
2019-05-26T06:11:16.446Z,14.64
2019-05-26T06:12:08.945Z,14.78
2019-05-26T06:13:08.948Z,14.87
2019-05-26T06:14:08.963Z,14.85
2019-05-26T06:15:08.972Z,14.85
2019-05-26T06:16:08.992Z,14.86
2019-05-26T06:17:10.592Z,14.90
2019-05-26T06:18:08.988Z,14.87
2019-05-26T06:19:08.995Z,14.93
2019-05-26T06:20:09.023Z,14.79
2019-05-26T06:21:09.015Z,14.95
2019-05-26T06:22:09.024Z,15.05
2019-05-26T06:23:09.048Z,15.12
2019-05-26T06:24:09.044Z,15.19
2019-05-26T06:25:09.117Z,15.23
2019-05-26T06:26:09.082Z,15.22
2019-05-26T06:27:09.068Z,15.20
2019-05-26T06:28:09.070Z,15.19
2019-05-26T06:29:09.084Z,15.28
2019-05-26T06:30:09.093Z,15.23
2019-05-26T06:31:09.170Z,15.27
2019-05-26T06:32:09.307Z,15.30
2019-05-26T06:33:09.118Z,15.33
2019-05-26T06:34:09.131Z,15.41
2019-05-26T06:35:09.167Z,15.49
2019-05-26T06:36:09.148Z,15.49
2019-05-26T06:37:09.155Z,15.51
2019-05-26T06:38:09.157Z,15.33
2019-05-26T06:39:09.177Z,15.46
2019-05-26T06:40:09.187Z,15.60
2019-05-26T06:41:09.248Z,15.68
2019-05-26T06:42:12.812Z,15.71
2019-05-26T06:43:09.215Z,15.60
2019-05-26T06:44:09.227Z,15.68
2019-05-26T06:45:09.225Z,15.71
2019-05-26T06:46:09.243Z,15.76
2019-05-26T06:47:09.273Z,15.85
2019-05-26T06:48:09.264Z,15.85
2019-05-26T06:49:09.276Z,15.89
2019-05-26T06:50:09.283Z,15.73
2019-05-26T06:51:09.296Z,15.71
2019-05-26T06:52:09.311Z,15.67
2019-05-26T06:53:09.330Z,15.59
2019-05-26T06:54:09.331Z,15.68
2019-05-26T06:55:09.341Z,15.76
2019-05-26T06:56:09.350Z,15.84
2019-05-26T06:57:09.362Z,15.73
2019-05-26T06:58:09.373Z,15.81
2019-05-26T06:59:09.380Z,15.78
2019-05-26T07:00:09.398Z,15.88
2019-05-26T07:01:09.394Z,16.01
2019-05-26T07:02:09.405Z,15.99
2019-05-26T07:03:09.416Z,15.84
2019-05-26T07:04:09.432Z,15.84
2019-05-26T07:05:09.433Z,15.78
2019-05-26T07:06:09.447Z,15.93
2019-05-26T07:07:09.462Z,15.91
2019-05-26T07:08:09.497Z,16.04
2019-05-26T07:09:09.481Z,15.96
2019-05-26T07:10:09.490Z,15.95
2019-05-26T07:11:09.490Z,15.95
2019-05-26T07:12:09.511Z,15.93
2019-05-26T07:13:09.523Z,15.95
2019-05-26T07:14:09.526Z,15.88
2019-05-26T07:15:09.542Z,15.81
2019-05-26T07:16:09.541Z,15.78
2019-05-26T07:17:09.561Z,15.76
2019-05-26T07:18:09.572Z,15.71
2019-05-26T07:19:09.575Z,15.78
2019-05-26T07:20:09.612Z,15.84
2019-05-26T07:21:09.615Z,15.84
2019-05-26T07:22:09.610Z,15.93
2019-05-26T07:23:10.343Z,16.14
2019-05-26T07:24:09.656Z,16.34
2019-05-26T07:25:09.713Z,16.45
2019-05-26T07:26:09.660Z,16.48
2019-05-26T07:27:09.671Z,16.48
2019-05-26T07:28:09.697Z,16.59
2019-05-26T07:29:09.814Z,16.70
2019-05-26T07:30:09.694Z,16.70
2019-05-26T07:31:09.712Z,16.78
2019-05-26T07:32:09.729Z,16.75
2019-05-26T07:33:09.737Z,16.62
2019-05-26T07:34:09.749Z,16.65
2019-05-26T07:35:09.758Z,16.77
2019-05-26T07:36:09.763Z,16.98
2019-05-26T07:37:09.787Z,17.17
2019-05-26T07:38:09.788Z,17.24
2019-05-26T07:39:09.818Z,17.43
2019-05-26T07:40:09.872Z,17.54
2019-05-26T07:41:09.826Z,17.65
2019-05-26T07:42:11.259Z,17.57
2019-05-26T07:43:09.859Z,17.63
2019-05-26T07:44:09.856Z,17.63
2019-05-26T07:45:09.927Z,17.77
2019-05-26T07:46:09.884Z,17.79
2019-05-26T07:47:09.903Z,17.74
2019-05-26T07:48:09.909Z,17.33
2019-05-26T07:49:09.932Z,17.33
2019-05-26T07:50:09.964Z,17.27
2019-05-26T07:51:09.947Z,17.28
2019-05-26T07:52:10.058Z,17.30
2019-05-26T07:53:09.965Z,17.33
2019-05-26T07:54:24.518Z,17.40
2019-05-26T07:55:09.998Z,17.49
2019-05-26T07:56:10.003Z,17.60
2019-05-26T07:57:10.018Z,17.51
2019-05-26T07:58:10.013Z,17.47
2019-05-26T07:59:10.034Z,17.62
2019-05-26T08:00:10.044Z,17.68
2019-05-26T08:01:10.053Z,17.79
2019-05-26T08:02:10.079Z,17.63
2019-05-26T08:03:10.084Z,17.66
2019-05-26T08:04:10.080Z,17.79
2019-05-26T08:05:10.096Z,17.60
2019-05-26T08:06:10.119Z,17.53
2019-05-26T08:07:10.117Z,17.60
2019-05-26T08:08:13.115Z,17.65
2019-05-26T08:09:10.140Z,17.73
2019-05-26T08:10:10.147Z,17.92
2019-05-26T08:11:10.152Z,17.95
2019-05-26T08:12:24.983Z,17.87
2019-05-26T08:13:10.181Z,17.94
2019-05-26T08:14:10.210Z,17.84
2019-05-26T08:15:10.203Z,17.91
2019-05-26T08:16:10.213Z,17.76
2019-05-26T08:17:10.219Z,17.74
2019-05-26T08:18:10.232Z,17.80
2019-05-26T08:19:10.253Z,17.77
2019-05-26T08:20:10.264Z,17.84
2019-05-26T08:21:10.267Z,17.98
2019-05-26T08:22:10.271Z,18.13
2019-05-26T08:23:10.292Z,18.10
2019-05-26T08:24:10.289Z,18.09
2019-05-26T08:25:10.303Z,18.09
2019-05-26T08:26:10.318Z,18.17
2019-05-26T08:27:10.385Z,18.11
2019-05-26T08:28:10.342Z,18.19
2019-05-26T08:29:10.347Z,18.19
2019-05-26T08:30:10.386Z,18.19
2019-05-26T08:31:13.373Z,18.29
2019-05-26T08:33:10.389Z,18.28
2019-05-26T08:34:10.401Z,18.32
2019-05-26T08:35:10.416Z,18.29
2019-05-26T08:36:10.415Z,18.25
2019-05-26T08:37:10.426Z,18.38
2019-05-26T08:38:10.456Z,18.42
2019-05-26T08:39:10.453Z,18.44
2019-05-26T08:40:10.456Z,18.35
2019-05-26T08:41:10.473Z,18.46
2019-05-26T08:42:26.012Z,18.41
2019-05-26T08:43:10.496Z,18.36
2019-05-26T08:44:10.497Z,18.34
2019-05-26T08:45:10.508Z,18.29
2019-05-26T08:46:10.540Z,18.21
2019-05-26T08:47:10.526Z,18.34
2019-05-26T08:48:10.557Z,18.38
2019-05-26T08:49:10.554Z,18.25
2019-05-26T08:50:10.570Z,18.41
2019-05-26T08:51:10.578Z,18.44
2019-05-26T08:52:10.586Z,18.47
2019-05-26T08:53:10.582Z,18.56
2019-05-26T08:54:10.604Z,18.66
2019-05-26T08:55:10.627Z,18.60
2019-05-26T08:56:10.619Z,18.46
2019-05-26T08:57:10.647Z,18.47
2019-05-26T08:58:10.651Z,18.44
2019-05-26T08:59:10.655Z,18.35
2019-05-26T09:00:10.665Z,18.41
2019-05-26T09:01:10.690Z,18.35
2019-05-26T09:02:10.758Z,18.34
2019-05-26T09:03:10.703Z,18.39
2019-05-26T09:04:10.704Z,18.26
2019-05-26T09:05:10.710Z,18.35
2019-05-26T09:06:10.721Z,18.36
2019-05-26T09:07:10.742Z,18.39
2019-05-26T09:08:10.749Z,18.42
2019-05-26T09:09:10.757Z,18.36
2019-05-26T09:10:10.767Z,18.41
2019-05-26T09:11:10.775Z,18.50
2019-05-26T09:12:10.869Z,18.47
2019-05-26T09:13:10.797Z,18.60
2019-05-26T09:14:10.805Z,18.62
2019-05-26T09:15:11.735Z,18.75
2019-05-26T09:16:10.831Z,18.78
2019-05-26T09:17:10.834Z,18.78
2019-05-26T09:18:10.837Z,18.82
2019-05-26T09:19:10.853Z,18.76
2019-05-26T09:20:12.095Z,18.78
2019-05-26T09:21:10.876Z,18.76
2019-05-26T09:22:10.889Z,18.96
2019-05-26T09:23:10.912Z,19.02
2019-05-26T09:24:10.906Z,19.20
2019-05-26T09:25:10.911Z,19.35
2019-05-26T09:26:10.935Z,19.43
2019-05-26T09:27:10.934Z,19.42
2019-05-26T09:28:10.970Z,19.40
2019-05-26T09:29:10.961Z,19.61
2019-05-26T09:30:10.972Z,19.80
2019-05-26T09:31:10.985Z,19.76
2019-05-26T09:32:11.053Z,19.70
2019-05-26T09:33:11.008Z,19.67
2019-05-26T09:34:11.016Z,19.67
2019-05-26T09:35:11.038Z,19.92
2019-05-26T09:36:11.041Z,20.05
2019-05-26T09:37:11.056Z,19.87
2019-05-26T09:38:11.070Z,19.83
2019-05-26T09:39:11.073Z,19.87
2019-05-26T09:40:11.097Z,20.01
2019-05-26T09:41:11.102Z,20.10
2019-05-26T09:42:11.112Z,19.98
2019-05-26T09:43:16.052Z,20.00
2019-05-26T09:44:11.134Z,20.01
2019-05-26T09:45:11.202Z,19.87
2019-05-26T09:46:11.160Z,20.02
2019-05-26T09:47:11.176Z,20.17
2019-05-26T09:48:11.190Z,20.33
2019-05-26T09:49:11.200Z,20.22
2019-05-26T09:50:11.205Z,20.07
2019-05-26T09:51:11.216Z,20.04
2019-05-26T09:52:11.226Z,20.10
2019-05-26T09:53:11.244Z,20.12
2019-05-26T09:54:12.719Z,20.20
2019-05-26T09:55:11.273Z,20.15
2019-05-26T09:56:11.308Z,20.16
2019-05-26T09:57:11.298Z,20.23
2019-05-26T09:58:11.321Z,20.23
2019-05-26T10:00:11.339Z,20.27
2019-05-26T10:01:11.334Z,20.48
2019-05-26T10:02:11.350Z,20.61
2019-05-26T10:03:11.367Z,20.54
2019-05-26T10:04:11.376Z,20.48
2019-05-26T10:05:11.392Z,20.50
2019-05-26T10:06:11.408Z,20.72
2019-05-26T10:07:15.682Z,20.76
2019-05-26T10:08:11.445Z,20.91
2019-05-26T10:09:11.437Z,21.05
2019-05-26T10:10:11.508Z,20.98
2019-05-26T10:11:11.466Z,21.00
2019-05-26T10:12:11.485Z,21.05
2019-05-26T10:13:11.491Z,20.98
2019-05-26T10:14:11.514Z,20.83
2019-05-26T10:15:11.521Z,20.87
2019-05-26T10:16:11.534Z,20.75
2019-05-26T10:17:11.561Z,20.76
2019-05-26T10:18:11.582Z,20.76
2019-05-26T10:19:11.577Z,20.98
2019-05-26T10:20:11.583Z,21.22
2019-05-26T10:21:11.591Z,21.33
2019-05-26T10:22:11.646Z,21.43
2019-05-26T10:23:11.635Z,21.49
2019-05-26T10:24:11.619Z,21.26
2019-05-26T10:25:11.694Z,21.06
2019-05-26T10:26:11.672Z,21.13
2019-05-26T10:27:11.665Z,21.11
2019-05-26T10:28:11.681Z,20.98
2019-05-26T10:29:11.697Z,21.13
2019-05-26T10:30:11.705Z,21.08
2019-05-26T10:31:11.731Z,20.81
2019-05-26T10:32:11.732Z,20.81
2019-05-26T10:33:11.746Z,20.98
2019-05-26T10:34:13.700Z,21.12
2019-05-26T10:35:11.781Z,21.18
2019-05-26T10:36:11.852Z,21.15
2019-05-26T10:37:11.820Z,21.11
2019-05-26T10:38:11.817Z,21.01
2019-05-26T10:39:11.820Z,21.08
2019-05-26T10:40:11.841Z,20.97
2019-05-26T10:41:11.854Z,21.11
2019-05-26T10:42:11.861Z,20.83
2019-05-26T10:44:11.887Z,20.97
2019-05-26T10:45:11.899Z,21.00
2019-05-26T10:46:11.916Z,21.03
2019-05-26T10:47:11.929Z,21.13
2019-05-26T10:48:11.944Z,21.08
2019-05-26T10:49:11.952Z,21.21
2019-05-26T10:50:11.967Z,21.37
2019-05-26T10:51:11.981Z,21.49
2019-05-26T10:52:11.993Z,21.73
2019-05-26T10:53:12.002Z,21.89
2019-05-26T10:54:12.018Z,22.06
2019-05-26T10:55:12.038Z,22.15
2019-05-26T10:56:12.050Z,22.19
2019-05-26T10:57:12.054Z,22.08
2019-05-26T10:58:12.061Z,21.89
2019-05-26T10:59:12.083Z,21.91
2019-05-26T11:00:12.098Z,22.08
2019-05-26T11:01:12.110Z,22.29
2019-05-26T11:02:12.128Z,22.42
2019-05-26T11:03:12.151Z,22.30
2019-05-26T11:04:12.156Z,22.15
2019-05-26T11:05:12.160Z,21.82
2019-05-26T11:06:12.169Z,21.70
2019-05-26T11:07:12.182Z,21.89
2019-05-26T11:08:12.211Z,21.98
2019-05-26T11:09:12.221Z,21.85
2019-05-26T11:10:12.230Z,21.66
2019-05-26T11:11:12.245Z,21.59
2019-05-26T11:12:14.310Z,21.75
2019-05-26T11:13:12.516Z,21.81
2019-05-26T11:14:12.297Z,21.70
2019-05-26T11:15:12.295Z,21.70
2019-05-26T11:16:12.330Z,21.73
2019-05-26T11:17:12.341Z,21.90
2019-05-26T11:18:12.392Z,22.12
2019-05-26T11:19:12.355Z,22.15
2019-05-26T11:20:12.384Z,22.15
2019-05-26T11:21:12.692Z,22.15
2019-05-26T11:22:12.410Z,22.14
2019-05-26T11:23:12.433Z,22.20
2019-05-26T11:24:12.423Z,22.14
2019-05-26T11:25:12.453Z,22.15
2019-05-26T11:26:12.466Z,22.15
2019-05-26T11:27:14.120Z,22.08
2019-05-26T11:28:12.478Z,22.15
2019-05-26T11:29:12.491Z,22.26
2019-05-26T11:30:12.619Z,22.02
2019-05-26T11:31:12.540Z,22.02
2019-05-26T11:32:12.528Z,22.24
2019-05-26T11:34:12.563Z,22.36
2019-05-26T11:35:12.583Z,22.59
2019-05-26T11:36:12.597Z,22.94
2019-05-26T11:37:12.596Z,22.84
2019-05-26T11:38:12.608Z,22.99
2019-05-26T11:39:12.631Z,22.56
2019-05-26T11:40:12.682Z,22.35
2019-05-26T11:41:12.660Z,22.54
2019-05-26T11:42:13.992Z,22.64
2019-05-26T11:43:16.854Z,22.85
2019-05-26T11:44:17.889Z,23.25
2019-05-26T11:45:12.725Z,23.42
2019-05-26T11:46:16.282Z,23.41
2019-05-26T11:47:12.814Z,23.39
2019-05-26T11:48:12.761Z,23.04
2019-05-26T11:49:12.774Z,22.79
2019-05-26T11:50:12.797Z,22.59
2019-05-26T11:51:12.830Z,22.60
2019-05-26T11:52:12.819Z,22.63
2019-05-26T11:53:12.839Z,22.44
2019-05-26T11:54:12.845Z,22.39
2019-05-26T11:55:12.860Z,22.46
2019-05-26T11:56:12.878Z,22.56
2019-05-26T11:57:12.891Z,22.99
2019-05-26T11:58:12.912Z,23.18
2019-05-26T11:59:12.917Z,23.31
2019-05-26T12:00:13.378Z,23.00
2019-05-26T12:01:12.950Z,22.79
2019-05-26T12:02:12.962Z,22.76
2019-05-26T12:03:12.965Z,22.79
2019-05-26T12:04:12.983Z,23.06
2019-05-26T12:05:16.591Z,23.47
2019-05-26T12:06:13.013Z,23.56
2019-05-26T12:07:13.030Z,23.44
2019-05-26T12:08:13.041Z,23.41
2019-05-26T12:09:13.088Z,23.68
2019-05-26T12:10:14.374Z,23.71
2019-05-26T12:11:13.122Z,23.53
2019-05-26T12:12:13.097Z,23.18
2019-05-26T12:13:13.227Z,23.57
2019-05-26T12:14:13.131Z,23.78
2019-05-26T12:15:13.134Z,23.62
2019-05-26T12:16:13.158Z,23.78
2019-05-26T12:17:13.212Z,23.89
2019-05-26T12:18:13.203Z,24.04
2019-05-26T12:19:13.220Z,23.78
2019-05-26T12:20:13.207Z,23.53
2019-05-26T12:21:13.227Z,23.12
2019-05-26T12:22:13.255Z,23.21
2019-05-26T12:23:13.265Z,23.18
2019-05-26T12:24:13.284Z,23.49
2019-05-26T12:25:13.291Z,23.53
2019-05-26T12:26:13.795Z,23.38
2019-05-26T12:27:13.317Z,23.32
2019-05-26T12:28:13.368Z,23.41
2019-05-26T12:29:13.352Z,23.29
2019-05-26T12:30:13.358Z,23.07
2019-05-26T12:31:13.384Z,23.03
2019-05-26T12:32:13.394Z,23.50
2019-05-26T12:33:13.503Z,23.37
2019-05-26T12:34:13.425Z,22.99
2019-05-26T12:35:13.434Z,22.99
2019-05-26T12:36:13.712Z,23.07
2019-05-26T12:37:13.465Z,23.21
2019-05-26T12:38:13.473Z,23.12
2019-05-26T12:39:13.504Z,23.04
2019-05-26T12:40:13.537Z,23.35
2019-05-26T12:41:13.519Z,23.23
2019-05-26T12:42:16.914Z,23.12
2019-05-26T12:43:14.384Z,23.21
2019-05-26T12:44:13.561Z,23.26
2019-05-26T12:45:13.567Z,23.31
2019-05-26T12:46:13.584Z,23.35
2019-05-26T12:47:13.598Z,23.23
2019-05-26T12:48:13.615Z,23.12
2019-05-26T12:49:13.633Z,23.15
2019-05-26T12:50:13.654Z,23.31
2019-05-26T12:51:13.654Z,23.12
2019-05-26T12:52:13.673Z,23.07
2019-05-26T12:53:13.681Z,23.06
2019-05-26T12:54:13.706Z,23.12
2019-05-26T12:55:13.717Z,23.38
2019-05-26T12:56:13.728Z,23.56
2019-05-26T12:57:13.740Z,23.57
2019-05-26T12:58:13.752Z,23.71
2019-05-26T12:59:13.957Z,23.78
2019-05-26T13:00:13.793Z,23.82
2019-05-26T13:01:13.788Z,24.04